Maersk Vallvik — 9V8839 — position and weather

sailwx.info

Track history (hours):
 
Tides and Currents Weather Stations Pressure Air Temp Water Temp Dewpoint Dewpoint Depression Visibility Wind Speed Wind Dir Waves Ship Positions

Maersk Vallvik

Last reported at 2017-Feb-21 15:18 UTC. Time now 2017-Feb-21 17:21 UTC.
Position S 33°46' E 018°07'.

Length 180 m; draft 8.5 m.

Type: Ship (hazmat cat A). MMSI: 564837000.

Date/timePositionNaut miles runAvg speedWind from/ knotsBaromVisibWave heightAir tempDewpointWater temp
2017-Feb-21 15:18S 33°46' E 018°07'1 1.8
2017-Feb-21 14:32S 33°48' E 018°07'3 2.0
2017-Feb-21 13:08S 33°50' E 018°06'1 1.9
2017-Feb-21 12:32S 33°52' E 018°07'8 8.4
2017-Feb-21 11:33S 33°57' E 018°13'  
2017-Feb-18 15:31S 30°51' E 030°29'1212.8
2017-Feb-18 14:33S 30°41' E 030°37'1212.3
2017-Feb-18 13:33S 30°30' E 030°45'1313.1
2017-Feb-18 12:33S 30°19' E 030°52'1212.4
2017-Feb-18 11:33S 30°08' E 031°00'1111.3
2017-Feb-18 10:33S 29°59' E 031°08'9 8.9
2017-Feb-18 09:33S 29°51' E 031°05'4 3.9
2017-Feb-18 08:33S 29°53' E 031°02'0 0.0
2017-Feb-18 07:31S 29°53' E 031°02'0 0.0
2017-Feb-18 06:31S 29°53' E 031°02'0 0.0
2017-Feb-18 05:31S 29°53' E 031°02'0 0.0
2017-Feb-18 04:31S 29°53' E 031°02'0 0.0
2017-Feb-18 03:31S 29°53' E 031°02'0 0.0
2017-Feb-18 02:31S 29°53' E 031°02'0 0.0
2017-Feb-18 01:31S 29°53' E 031°02'0 0.0
2017-Feb-18 00:31S 29°53' E 031°02'0 0.0
2017-Feb-17 23:31S 29°53' E 031°02'0 0.0
2017-Feb-17 22:31S 29°53' E 031°02'0 0.0
2017-Feb-17 21:31S 29°53' E 031°02'0 0.0
2017-Feb-17 20:31S 29°53' E 031°02'0 0.0
2017-Feb-17 19:31S 29°53' E 031°02'0 0.0
2017-Feb-17 18:31S 29°53' E 031°02'0 0.0
2017-Feb-17 17:31S 29°53' E 031°02'0 0.0
2017-Feb-17 16:31S 29°53' E 031°02'0 0.0
2017-Feb-17 15:31S 29°53' E 031°02'0 0.0
2017-Feb-17 14:31S 29°53' E 031°02'0 0.0
2017-Feb-17 13:31S 29°53' E 031°02'0 0.0
2017-Feb-17 12:31S 29°53' E 031°02'0 0.0
2017-Feb-17 11:31S 29°53' E 031°02'0 0.0
2017-Feb-17 10:31S 29°53' E 031°02'0 0.0
2017-Feb-17 09:31S 29°53' E 031°02'0 0.0
2017-Feb-17 08:31S 29°53' E 031°02'0 0.0
2017-Feb-17 07:31S 29°53' E 031°02'0 0.0
2017-Feb-17 06:31S 29°53' E 031°02'0 0.0
2017-Feb-17 05:31S 29°53' E 031°02'0 0.0
2017-Feb-17 04:28S 29°53' E 031°02'0 0.0
2017-Feb-17 03:31S 29°53' E 031°02'0 0.0
2017-Feb-17 02:31S 29°53' E 031°02'0 0.0
2017-Feb-17 01:34S 29°53' E 031°02'0 0.0
2017-Feb-17 00:31S 29°53' E 031°02'0 0.0
2017-Feb-16 23:31S 29°53' E 031°02'0 0.0
2017-Feb-16 22:31S 29°53' E 031°02'0 0.0
2017-Feb-16 21:31S 29°53' E 031°02'0 0.0
2017-Feb-16 20:33S 29°53' E 031°02'5 5.2
2017-Feb-16 19:33S 29°50' E 031°07'3 2.5
2017-Feb-16 18:33S 29°52' E 031°09'1 0.8
2017-Feb-16 17:33S 29°52' E 031°10'4 4.2
2017-Feb-16 16:33S 29°49' E 031°06'7 6.7
2017-Feb-16 15:33S 29°55' E 031°09'2 2.4
2017-Feb-16 14:31S 29°57' E 031°10'3 2.7
2017-Feb-16 13:33S 29°56' E 031°13'2 1.7
2017-Feb-16 12:33S 29°55' E 031°14'3 2.6
2017-Feb-16 11:33S 29°57' E 031°12'3 2.9
2017-Feb-16 10:31S 29°54' E 031°12'1 1.0
2017-Feb-16 09:31S 29°54' E 031°13'1 0.6
2017-Feb-16 08:31S 29°55' E 031°13'0 0.3
2017-Feb-16 07:31S 29°55' E 031°13'0 0.2
2017-Feb-16 06:31S 29°55' E 031°13'0 0.1
2017-Feb-16 05:31S 29°55' E 031°13'0 0.2
2017-Feb-16 04:31S 29°56' E 031°14'0 0.1
2017-Feb-16 03:31S 29°56' E 031°14'1 0.5
2017-Feb-16 02:31S 29°55' E 031°14'0 0.5
2017-Feb-16 01:31S 29°55' E 031°15'5 5.0
2017-Feb-16 00:33S 29°58' E 031°10'1212.3
2017-Feb-15 23:33S 30°08' E 031°02'1313.5
2017-Feb-15 22:34S 30°19' E 030°53'  
Track history (hours):
 
Tides and Currents Weather Stations Pressure Air Temp Water Temp Dewpoint Dewpoint Depression Visibility Wind Speed Wind Dir Waves Ship Positions

Maersk Vallvik

Last reported at 2017-Feb-21 15:18 UTC. Time now 2017-Feb-21 17:21 UTC.
Position S 33°46' E 018°07'.

Length 180 m; draft 8.5 m.

Type: Ship (hazmat cat A). MMSI: 564837000.

Date/timePositionNaut miles runAvg speedWind from/ knotsBaromVisibWave heightAir tempDewpointWater temp
2017-Feb-21 15:18S 33°46' E 018°07'1 1.8
2017-Feb-21 14:32S 33°48' E 018°07'3 2.0
2017-Feb-21 13:08S 33°50' E 018°06'1 1.9
2017-Feb-21 12:32S 33°52' E 018°07'8 8.4
2017-Feb-21 11:33S 33°57' E 018°13'  
2017-Feb-18 15:31S 30°51' E 030°29'1212.8
2017-Feb-18 14:33S 30°41' E 030°37'1212.3
2017-Feb-18 13:33S 30°30' E 030°45'1313.1
2017-Feb-18 12:33S 30°19' E 030°52'1212.4
2017-Feb-18 11:33S 30°08' E 031°00'1111.3
2017-Feb-18 10:33S 29°59' E 031°08'9 8.9
2017-Feb-18 09:33S 29°51' E 031°05'4 3.9
2017-Feb-18 08:33S 29°53' E 031°02'0 0.0
2017-Feb-18 07:31S 29°53' E 031°02'0 0.0
2017-Feb-18 06:31S 29°53' E 031°02'0 0.0
2017-Feb-18 05:31S 29°53' E 031°02'0 0.0
2017-Feb-18 04:31S 29°53' E 031°02'0 0.0
2017-Feb-18 03:31S 29°53' E 031°02'0 0.0
2017-Feb-18 02:31S 29°53' E 031°02'0 0.0
2017-Feb-18 01:31S 29°53' E 031°02'0 0.0
2017-Feb-18 00:31S 29°53' E 031°02'0 0.0
2017-Feb-17 23:31S 29°53' E 031°02'0 0.0
2017-Feb-17 22:31S 29°53' E 031°02'0 0.0
2017-Feb-17 21:31S 29°53' E 031°02'0 0.0
2017-Feb-17 20:31S 29°53' E 031°02'0 0.0
2017-Feb-17 19:31S 29°53' E 031°02'0 0.0
2017-Feb-17 18:31S 29°53' E 031°02'0 0.0
2017-Feb-17 17:31S 29°53' E 031°02'0 0.0
2017-Feb-17 16:31S 29°53' E 031°02'0 0.0
2017-Feb-17 15:31S 29°53' E 031°02'0 0.0
2017-Feb-17 14:31S 29°53' E 031°02'0 0.0
2017-Feb-17 13:31S 29°53' E 031°02'0 0.0
2017-Feb-17 12:31S 29°53' E 031°02'0 0.0
2017-Feb-17 11:31S 29°53' E 031°02'0 0.0
2017-Feb-17 10:31S 29°53' E 031°02'0 0.0
2017-Feb-17 09:31S 29°53' E 031°02'0 0.0
2017-Feb-17 08:31S 29°53' E 031°02'0 0.0
2017-Feb-17 07:31S 29°53' E 031°02'0 0.0
2017-Feb-17 06:31S 29°53' E 031°02'0 0.0
2017-Feb-17 05:31S 29°53' E 031°02'0 0.0
2017-Feb-17 04:28S 29°53' E 031°02'0 0.0
2017-Feb-17 03:31S 29°53' E 031°02'0 0.0
2017-Feb-17 02:31S 29°53' E 031°02'0 0.0
2017-Feb-17 01:34S 29°53' E 031°02'0 0.0
2017-Feb-17 00:31S 29°53' E 031°02'0 0.0
2017-Feb-16 23:31S 29°53' E 031°02'0 0.0
2017-Feb-16 22:31S 29°53' E 031°02'0 0.0
2017-Feb-16 21:31S 29°53' E 031°02'0 0.0
2017-Feb-16 20:33S 29°53' E 031°02'5 5.2
2017-Feb-16 19:33S 29°50' E 031°07'3 2.5
2017-Feb-16 18:33S 29°52' E 031°09'1 0.8
2017-Feb-16 17:33S 29°52' E 031°10'4 4.2
2017-Feb-16 16:33S 29°49' E 031°06'7 6.7
2017-Feb-16 15:33S 29°55' E 031°09'2 2.4
2017-Feb-16 14:31S 29°57' E 031°10'3 2.7
2017-Feb-16 13:33S 29°56' E 031°13'2 1.7
2017-Feb-16 12:33S 29°55' E 031°14'3 2.6
2017-Feb-16 11:33S 29°57' E 031°12'3 2.9
2017-Feb-16 10:31S 29°54' E 031°12'1 1.0
2017-Feb-16 09:31S 29°54' E 031°13'1 0.6
2017-Feb-16 08:31S 29°55' E 031°13'0 0.3
2017-Feb-16 07:31S 29°55' E 031°13'0 0.2
2017-Feb-16 06:31S 29°55' E 031°13'0 0.1
2017-Feb-16 05:31S 29°55' E 031°13'0 0.2
2017-Feb-16 04:31S 29°56' E 031°14'0 0.1
2017-Feb-16 03:31S 29°56' E 031°14'1 0.5
2017-Feb-16 02:31S 29°55' E 031°14'0 0.5
2017-Feb-16 01:31S 29°55' E 031°15'5 5.0
2017-Feb-16 00:33S 29°58' E 031°10'1212.3
2017-Feb-15 23:33S 30°08' E 031°02'1313.5
2017-Feb-15 22:34S 30°19' E 030°53'  

Dump ship's entire track history